createdAt,value
2023-07-16T00:02:39.778Z,25.68
2023-07-16T00:05:42.488Z,25.65
2023-07-16T00:08:44.749Z,25.71
2023-07-16T00:11:47.697Z,25.68
2023-07-16T00:14:50.198Z,25.55
2023-07-16T00:17:52.969Z,25.62
2023-07-16T00:20:55.453Z,25.59
2023-07-16T00:23:58.169Z,25.46
2023-07-16T00:27:00.518Z,25.50
2023-07-16T00:30:04.471Z,25.44
2023-07-16T00:33:06.991Z,25.36
2023-07-16T00:36:10.295Z,25.40
2023-07-16T00:39:12.616Z,25.38
2023-07-16T00:42:15.392Z,25.36
2023-07-16T00:45:17.987Z,25.33
2023-07-16T00:48:21.139Z,25.28
2023-07-16T00:51:25.780Z,25.24
2023-07-16T00:54:30.703Z,25.11
2023-07-16T00:57:34.206Z,25.16
2023-07-16T01:00:41.094Z,25.07
2023-07-16T01:03:43.496Z,25.03
2023-07-16T01:06:52.318Z,24.99
2023-07-16T01:09:56.177Z,25.04
2023-07-16T01:12:59.676Z,24.92
2023-07-16T01:16:02.113Z,24.86
2023-07-16T01:19:05.250Z,24.86
2023-07-16T01:22:59.019Z,24.94
2023-07-16T01:26:12.519Z,24.89
2023-07-16T01:29:30.309Z,24.86
2023-07-16T01:32:34.495Z,24.84
2023-07-16T01:35:38.260Z,24.81
2023-07-16T01:38:41.062Z,24.77
2023-07-16T01:41:43.548Z,24.63
2023-07-16T01:44:46.275Z,24.68
2023-07-16T01:48:00.210Z,24.59
2023-07-16T01:51:04.337Z,24.60
2023-07-16T01:54:07.002Z,24.61
2023-07-16T01:57:09.822Z,24.57
2023-07-16T02:00:12.669Z,24.45
2023-07-16T02:03:21.864Z,24.31
2023-07-16T02:06:24.822Z,24.38
2023-07-16T02:09:27.303Z,24.45
2023-07-16T02:12:30.002Z,24.35
2023-07-16T02:15:32.451Z,24.34
2023-07-16T02:18:35.274Z,24.39
2023-07-16T02:21:37.621Z,24.29
2023-07-16T02:24:40.284Z,24.25
2023-07-16T02:27:42.635Z,24.32
2023-07-16T02:30:45.435Z,24.19
2023-07-16T02:33:48.027Z,24.17
2023-07-16T02:36:50.752Z,24.26
2023-07-16T02:39:53.105Z,24.24
2023-07-16T02:42:55.809Z,24.14
2023-07-16T02:45:58.138Z,24.11
2023-07-16T02:49:01.201Z,24.08
2023-07-16T02:52:03.817Z,24.15
2023-07-16T02:55:06.980Z,24.13
2023-07-16T02:58:09.586Z,24.11
2023-07-16T03:01:12.620Z,23.99
2023-07-16T03:04:15.116Z,24.01
2023-07-16T03:07:17.774Z,23.96
2023-07-16T03:10:20.952Z,24.02
2023-07-16T03:13:24.063Z,23.94
2023-07-16T03:16:27.063Z,24.02
2023-07-16T03:19:29.824Z,24.03
2023-07-16T03:22:32.477Z,24.01
2023-07-16T03:25:35.191Z,23.97
2023-07-16T03:28:37.700Z,23.86
2023-07-16T03:31:40.861Z,23.85
2023-07-16T03:34:43.444Z,23.94
2023-07-16T03:37:46.164Z,23.93
2023-07-16T03:40:50.206Z,23.96
2023-07-16T03:43:52.915Z,23.97
2023-07-16T03:46:55.552Z,23.99
2023-07-16T03:49:58.357Z,23.88
2023-07-16T03:53:00.689Z,23.98
2023-07-16T03:56:03.399Z,23.91
2023-07-16T03:59:05.880Z,23.89
2023-07-16T04:02:08.667Z,23.82
2023-07-16T04:05:11.656Z,23.79
2023-07-16T04:08:14.563Z,23.85
2023-07-16T04:11:18.226Z,23.90
2023-07-16T04:14:20.549Z,23.83
2023-07-16T04:17:23.192Z,23.91
2023-07-16T04:20:25.980Z,23.85
2023-07-16T04:23:28.706Z,23.82
2023-07-16T04:26:31.216Z,23.91
2023-07-16T04:29:33.980Z,23.87
2023-07-16T04:32:36.407Z,23.97
2023-07-16T04:35:39.175Z,23.97
2023-07-16T04:38:41.553Z,23.99
2023-07-16T04:41:44.312Z,23.99
2023-07-16T04:44:46.751Z,24.04
2023-07-16T04:47:52.075Z,24.06
2023-07-16T04:50:54.416Z,24.05
2023-07-16T04:53:57.134Z,24.20
2023-07-16T04:56:59.514Z,24.24
2023-07-16T05:00:02.272Z,24.15
2023-07-16T05:03:04.916Z,24.28
2023-07-16T05:06:07.843Z,24.28
2023-07-16T05:09:10.303Z,24.37
2023-07-16T05:12:12.924Z,24.40
2023-07-16T05:15:16.486Z,24.43
2023-07-16T05:18:19.264Z,24.44
2023-07-16T05:21:21.677Z,24.56
2023-07-16T05:24:24.544Z,24.62
2023-07-16T05:27:26.983Z,24.76
2023-07-16T05:30:29.830Z,24.83
2023-07-16T05:33:32.533Z,24.91
2023-07-16T05:36:35.584Z,24.88
2023-07-16T05:39:38.528Z,25.03
2023-07-16T05:42:41.119Z,25.07
2023-07-16T05:45:43.658Z,25.02
2023-07-16T05:48:46.413Z,25.13
2023-07-16T05:51:49.747Z,25.17
2023-07-16T05:54:52.413Z,25.15
2023-07-16T05:57:54.828Z,25.15
2023-07-16T06:00:57.616Z,25.28
2023-07-16T06:04:00.439Z,25.26
2023-07-16T06:07:03.842Z,25.36
2023-07-16T06:10:07.379Z,25.54
2023-07-16T06:13:09.789Z,25.55
2023-07-16T06:16:12.530Z,25.76
2023-07-16T06:19:15.877Z,25.85
2023-07-16T06:22:18.876Z,25.87
2023-07-16T06:25:21.324Z,26.06
2023-07-16T06:28:24.886Z,26.17
2023-07-16T06:31:27.349Z,26.26
2023-07-16T06:34:30.055Z,26.49
2023-07-16T06:37:32.425Z,26.53
2023-07-16T06:40:35.261Z,26.74
2023-07-16T06:43:37.664Z,26.75
2023-07-16T06:46:40.498Z,26.98
2023-07-16T06:49:43.088Z,27.01
2023-07-16T06:52:45.752Z,27.17
2023-07-16T06:55:51.061Z,27.28
2023-07-16T06:58:53.754Z,27.43
2023-07-16T07:01:56.219Z,27.66
2023-07-16T07:04:59.714Z,27.78
2023-07-16T07:08:01.918Z,28.00
2023-07-16T07:11:05.642Z,28.24
2023-07-16T07:14:09.312Z,28.45
2023-07-16T07:17:13.509Z,28.72
2023-07-16T07:20:17.827Z,28.82
2023-07-16T07:23:20.562Z,28.99
2023-07-16T07:26:23.027Z,29.17
2023-07-16T07:29:25.625Z,29.33
2023-07-16T07:32:28.048Z,29.62
2023-07-16T07:35:30.637Z,29.91
2023-07-16T07:38:33.083Z,30.10
2023-07-16T07:41:35.810Z,30.33
2023-07-16T07:44:38.338Z,30.49
2023-07-16T07:47:41.131Z,30.70
2023-07-16T07:50:43.616Z,30.84
2023-07-16T07:53:46.388Z,31.13
2023-07-16T07:56:48.901Z,31.47
2023-07-16T07:59:56.353Z,31.69
2023-07-16T08:02:58.823Z,31.95
2023-07-16T08:06:01.549Z,32.25
2023-07-16T08:09:04.009Z,32.59
2023-07-16T08:12:06.746Z,32.90
2023-07-16T08:15:15.042Z,33.13
2023-07-16T08:18:17.719Z,33.24
2023-07-16T08:21:23.172Z,33.41
2023-07-16T08:24:27.201Z,33.45
2023-07-16T08:27:29.533Z,33.62
2023-07-16T08:30:34.228Z,33.76
2023-07-16T08:33:36.765Z,33.80
2023-07-16T08:36:39.371Z,34.07
2023-07-16T08:39:42.037Z,34.08
2023-07-16T08:42:50.130Z,34.14
2023-07-16T08:45:52.770Z,34.01
2023-07-16T08:48:57.582Z,34.15
2023-07-16T08:52:02.165Z,34.42
2023-07-16T08:55:07.044Z,34.88
2023-07-16T08:58:09.752Z,35.09
2023-07-16T09:01:13.950Z,35.30
2023-07-16T09:04:17.672Z,35.10
2023-07-16T09:07:22.568Z,35.31
2023-07-16T09:10:26.109Z,35.56
2023-07-16T09:13:30.428Z,35.77
2023-07-16T09:16:35.742Z,35.95
2023-07-16T09:19:38.438Z,36.28
2023-07-16T09:22:40.931Z,36.65
2023-07-16T09:25:44.820Z,36.68
2023-07-16T09:28:49.906Z,36.40
2023-07-16T09:32:06.398Z,37.02
2023-07-16T09:35:13.436Z,37.55
2023-07-16T09:38:17.177Z,37.41
2023-07-16T09:41:20.459Z,37.15
2023-07-16T09:44:23.172Z,37.34
2023-07-16T09:47:26.435Z,36.94
2023-07-16T09:50:31.632Z,36.84
2023-07-16T09:53:34.786Z,37.22
2023-07-16T09:56:41.432Z,37.25
2023-07-16T09:59:45.227Z,36.68
2023-07-16T10:02:48.646Z,36.46
2023-07-16T10:05:52.530Z,37.15
2023-07-16T10:08:54.866Z,37.65
2023-07-16T10:12:09.044Z,37.41
2023-07-16T10:15:14.696Z,36.97
2023-07-16T10:18:35.788Z,36.99
2023-07-16T10:21:39.768Z,37.17
2023-07-16T10:24:42.783Z,37.34
2023-07-16T10:27:46.866Z,37.24
2023-07-16T10:30:51.413Z,37.25
2023-07-16T10:34:06.115Z,37.12
2023-07-16T10:37:09.098Z,38.00
2023-07-16T10:40:12.240Z,38.22
2023-07-16T10:43:16.055Z,38.65
2023-07-16T10:46:18.808Z,38.42
2023-07-16T10:49:29.615Z,38.17
2023-07-16T10:52:32.182Z,37.92
2023-07-16T10:55:39.015Z,37.98
2023-07-16T10:58:41.958Z,38.03
2023-07-16T11:01:45.192Z,37.74
2023-07-16T11:04:48.628Z,37.52
2023-07-16T11:07:54.969Z,37.50
2023-07-16T11:10:58.820Z,37.18
2023-07-16T11:14:04.297Z,37.60
2023-07-16T11:17:10.327Z,37.72
2023-07-16T11:20:13.261Z,38.20
2023-07-16T11:23:15.662Z,38.26
2023-07-16T11:26:18.513Z,37.50
2023-07-16T11:29:21.100Z,37.25
2023-07-16T11:32:44.095Z,37.68
2023-07-16T11:35:49.033Z,37.95
2023-07-16T11:38:51.790Z,37.91
2023-07-16T11:41:59.085Z,38.25
2023-07-16T11:45:03.753Z,37.89
2023-07-16T11:48:06.793Z,37.31
2023-07-16T11:51:10.037Z,36.58
2023-07-16T11:54:12.557Z,36.18
2023-07-16T11:57:15.328Z,36.15
2023-07-16T12:00:18.680Z,36.54
2023-07-16T12:03:21.448Z,36.87
2023-07-16T12:06:23.924Z,36.78
2023-07-16T12:09:26.725Z,36.74
2023-07-16T12:12:28.913Z,36.40
2023-07-16T12:15:31.505Z,36.67
2023-07-16T12:18:34.265Z,36.35
2023-07-16T12:21:37.505Z,36.85
2023-07-16T12:24:39.837Z,36.89
2023-07-16T12:27:42.614Z,37.01
2023-07-16T12:30:44.999Z,37.22
2023-07-16T12:33:48.272Z,37.28
2023-07-16T12:36:50.630Z,37.14
2023-07-16T12:39:53.497Z,36.47
2023-07-16T12:42:55.821Z,36.20
2023-07-16T12:45:58.617Z,36.07
2023-07-16T12:49:01.049Z,36.29
2023-07-16T12:52:03.921Z,36.12
2023-07-16T12:55:06.257Z,35.33
2023-07-16T12:58:08.833Z,35.09
2023-07-16T13:01:11.488Z,35.22
2023-07-16T13:04:14.183Z,35.68
2023-07-16T13:07:16.549Z,35.85
2023-07-16T13:10:24.105Z,35.50
2023-07-16T13:13:26.832Z,35.61
2023-07-16T13:16:29.529Z,35.70
2023-07-16T13:19:32.101Z,35.76
2023-07-16T13:22:34.681Z,34.98
2023-07-16T13:25:39.545Z,34.53
2023-07-16T13:28:42.251Z,34.64
2023-07-16T13:31:44.739Z,34.87
2023-07-16T13:34:47.471Z,34.95
2023-07-16T13:37:49.830Z,35.17
2023-07-16T13:40:52.398Z,35.47
2023-07-16T13:43:54.769Z,35.50
2023-07-16T13:46:57.378Z,35.57
2023-07-16T13:49:59.866Z,35.56
2023-07-16T13:53:03.025Z,35.50
2023-07-16T13:56:05.485Z,35.72
2023-07-16T13:59:08.331Z,35.45
2023-07-16T14:02:10.726Z,35.20
2023-07-16T14:05:13.369Z,34.91
2023-07-16T14:08:15.778Z,34.62
2023-07-16T14:11:19.516Z,34.45
2023-07-16T14:14:23.161Z,34.49
2023-07-16T14:17:25.835Z,34.65
2023-07-16T14:20:28.394Z,34.79
2023-07-16T14:23:31.072Z,34.80
2023-07-16T14:26:34.690Z,34.73
2023-07-16T14:29:40.637Z,34.56
2023-07-16T14:32:50.157Z,34.47
2023-07-16T14:35:52.908Z,34.47
2023-07-16T14:38:55.843Z,34.42
2023-07-16T14:41:58.481Z,34.33
2023-07-16T14:45:01.079Z,34.43
2023-07-16T14:48:05.837Z,34.38
2023-07-16T14:51:08.567Z,34.47
2023-07-16T14:54:11.454Z,34.45
2023-07-16T14:57:13.737Z,34.42
2023-07-16T15:00:16.524Z,33.98
2023-07-16T15:03:19.061Z,34.16
2023-07-16T15:06:22.036Z,34.22
2023-07-16T15:09:24.582Z,34.26
2023-07-16T15:12:27.443Z,34.28
2023-07-16T15:15:29.888Z,34.14
2023-07-16T15:18:32.606Z,34.27
2023-07-16T15:21:35.023Z,34.37
2023-07-16T15:24:37.961Z,34.34
2023-07-16T15:27:40.374Z,34.46
2023-07-16T15:30:42.913Z,34.32
2023-07-16T15:33:45.260Z,34.22
2023-07-16T15:36:47.724Z,34.04
2023-07-16T15:39:50.265Z,34.07
2023-07-16T15:42:54.185Z,33.99
2023-07-16T15:45:56.638Z,34.03
2023-07-16T15:48:59.245Z,33.94
2023-07-16T15:52:01.667Z,33.89
2023-07-16T15:55:04.992Z,33.72
2023-07-16T15:58:07.341Z,33.57
2023-07-16T16:01:10.288Z,33.45
2023-07-16T16:04:13.408Z,33.44
2023-07-16T16:07:15.633Z,33.49
2023-07-16T16:10:18.212Z,33.45
2023-07-16T16:13:22.473Z,33.39
2023-07-16T16:16:25.191Z,33.40
2023-07-16T16:19:27.530Z,33.35
2023-07-16T16:22:30.211Z,33.36
2023-07-16T16:25:36.949Z,33.30
2023-07-16T16:28:41.269Z,33.23
2023-07-16T16:31:43.819Z,33.27
2023-07-16T16:34:48.626Z,33.20
2023-07-16T16:37:51.357Z,33.09
2023-07-16T16:40:55.671Z,32.97
2023-07-16T16:43:58.025Z,32.98
2023-07-16T16:47:00.785Z,33.04
2023-07-16T16:50:04.087Z,32.96
2023-07-16T16:53:07.023Z,32.92
2023-07-16T16:56:09.540Z,32.90
2023-07-16T16:59:12.195Z,32.87
2023-07-16T17:02:14.832Z,32.83
2023-07-16T17:05:17.506Z,32.70
2023-07-16T17:08:19.963Z,32.65
2023-07-16T17:11:22.714Z,32.54
2023-07-16T17:14:25.457Z,32.56
2023-07-16T17:17:29.284Z,32.55
2023-07-16T17:20:31.949Z,32.42
2023-07-16T17:23:35.496Z,32.47
2023-07-16T17:26:38.874Z,32.44
2023-07-16T17:29:43.225Z,32.41
2023-07-16T17:32:48.910Z,32.29
2023-07-16T17:35:51.700Z,32.26
2023-07-16T17:38:54.331Z,32.27
2023-07-16T17:41:56.840Z,32.21
2023-07-16T17:44:59.221Z,32.15
2023-07-16T17:48:02.042Z,32.09
2023-07-16T17:51:05.427Z,31.98
2023-07-16T17:54:08.154Z,31.97
2023-07-16T17:57:10.862Z,31.98
2023-07-16T18:00:24.046Z,31.84
2023-07-16T18:03:27.745Z,31.93
2023-07-16T18:06:31.415Z,31.90
2023-07-16T18:09:35.291Z,31.84
2023-07-16T18:12:37.763Z,31.79
2023-07-16T18:15:40.653Z,31.74
2023-07-16T18:18:43.083Z,31.70
2023-07-16T18:21:51.669Z,31.66
2023-07-16T18:25:10.833Z,31.63
2023-07-16T18:28:13.485Z,31.60
2023-07-16T18:31:16.042Z,31.48
2023-07-16T18:34:18.706Z,31.53
2023-07-16T18:37:23.377Z,31.51
2023-07-16T18:40:26.202Z,31.46
2023-07-16T18:43:36.452Z,31.26
2023-07-16T18:46:45.760Z,31.15
2023-07-16T18:49:48.261Z,31.03
2023-07-16T18:52:51.026Z,30.86
2023-07-16T18:55:53.404Z,30.77
2023-07-16T18:58:56.052Z,30.70
2023-07-16T19:01:58.711Z,30.63
2023-07-16T19:05:01.330Z,30.56
2023-07-16T19:08:03.783Z,30.59
2023-07-16T19:11:06.417Z,30.52
2023-07-16T19:14:08.829Z,30.47
2023-07-16T19:17:15.398Z,30.41
2023-07-16T19:20:17.779Z,30.20
2023-07-16T19:23:20.598Z,30.25
2023-07-16T19:26:23.655Z,30.22
2023-07-16T19:29:26.535Z,30.18
2023-07-16T19:32:29.111Z,30.15
2023-07-16T19:35:33.594Z,30.18
2023-07-16T19:38:36.431Z,30.15
2023-07-16T19:41:39.160Z,30.10
2023-07-16T19:44:41.574Z,29.95
2023-07-16T19:47:44.374Z,30.03
2023-07-16T19:50:48.644Z,30.00
2023-07-16T19:53:51.636Z,29.96
2023-07-16T19:56:54.090Z,29.93
2023-07-16T19:59:56.788Z,29.79
2023-07-16T20:02:59.230Z,29.77
2023-07-16T20:06:07.180Z,29.81
2023-07-16T20:09:10.409Z,29.68
2023-07-16T20:12:13.070Z,29.65
2023-07-16T20:15:15.568Z,29.62
2023-07-16T20:18:21.529Z,29.57
2023-07-16T20:21:25.430Z,29.61
2023-07-16T20:24:28.121Z,29.58
2023-07-16T20:27:30.541Z,29.46
2023-07-16T20:30:34.708Z,29.47
2023-07-16T20:33:37.128Z,29.39
2023-07-16T20:36:39.750Z,29.45
2023-07-16T20:39:43.283Z,29.40
2023-07-16T20:42:47.234Z,29.27
2023-07-16T20:45:50.264Z,29.26
2023-07-16T20:48:52.959Z,29.23
2023-07-16T20:51:55.292Z,29.18
2023-07-16T20:54:59.893Z,29.24
2023-07-16T20:58:03.928Z,29.12
2023-07-16T21:01:07.611Z,29.18
2023-07-16T21:04:10.051Z,29.15
2023-07-16T21:07:12.727Z,29.10
2023-07-16T21:10:15.690Z,29.05
2023-07-16T21:13:19.134Z,28.96
2023-07-16T21:16:21.504Z,28.91
2023-07-16T21:19:24.170Z,28.94
2023-07-16T21:22:30.663Z,28.90
2023-07-16T21:25:33.715Z,28.76
2023-07-16T21:28:36.092Z,28.63
2023-07-16T21:31:38.783Z,28.70
2023-07-16T21:34:41.368Z,28.67
2023-07-16T21:37:44.379Z,28.72
2023-07-16T21:40:46.871Z,28.62
2023-07-16T21:43:49.525Z,28.59
2023-07-16T21:46:52.047Z,28.55
2023-07-16T21:49:55.426Z,28.57
2023-07-16T21:52:59.956Z,28.47
2023-07-16T21:56:02.722Z,28.43
2023-07-16T21:59:06.498Z,28.44
2023-07-16T22:02:09.339Z,28.48
2023-07-16T22:05:12.557Z,28.48
2023-07-16T22:08:15.236Z,28.36
2023-07-16T22:11:18.352Z,28.34
2023-07-16T22:14:21.146Z,28.31
2023-07-16T22:17:25.303Z,28.31
2023-07-16T22:20:28.544Z,28.26
2023-07-16T22:23:31.249Z,28.26
2023-07-16T22:26:34.649Z,28.34
2023-07-16T22:29:37.370Z,28.34
2023-07-16T22:32:39.881Z,28.33
2023-07-16T22:35:42.554Z,28.22
2023-07-16T22:38:45.389Z,28.30
2023-07-16T22:41:47.967Z,28.20
2023-07-16T22:44:50.294Z,28.26
2023-07-16T22:47:53.055Z,28.24
2023-07-16T22:50:55.560Z,28.20
2023-07-16T22:53:59.273Z,28.18
2023-07-16T22:57:01.635Z,28.06
2023-07-16T23:00:06.037Z,28.14
2023-07-16T23:03:09.691Z,28.13
2023-07-16T23:06:12.229Z,28.12
2023-07-16T23:09:14.947Z,28.10
2023-07-16T23:12:17.591Z,28.09
2023-07-16T23:15:20.243Z,28.00
2023-07-16T23:18:23.039Z,28.06
2023-07-16T23:21:25.447Z,27.96
2023-07-16T23:24:28.408Z,28.00
2023-07-16T23:27:30.757Z,28.00
2023-07-16T23:30:37.787Z,27.88
2023-07-16T23:33:40.162Z,27.89
2023-07-16T23:36:42.948Z,27.86
2023-07-16T23:39:45.307Z,27.91
2023-07-16T23:42:49.724Z,27.87
2023-07-16T23:45:52.062Z,27.73
2023-07-16T23:48:54.645Z,27.73
2023-07-16T23:51:57.047Z,27.74
2023-07-16T23:55:00.132Z,27.70
2023-07-16T23:58:02.558Z,27.71
